createdAt,value
2023-03-26T00:00:30.606Z,13.63
2023-03-26T00:01:39.968Z,13.61
2023-03-26T00:02:43.755Z,13.59
2023-03-26T00:03:48.970Z,13.59
2023-03-26T00:04:56.051Z,13.57
2023-03-26T00:06:07.747Z,13.57
2023-03-26T00:07:13.667Z,13.56
2023-03-26T00:08:18.948Z,13.54
2023-03-26T00:09:25.179Z,13.54
2023-03-26T00:10:30.844Z,13.53
2023-03-26T00:11:39.104Z,13.53
2023-03-26T00:12:51.220Z,13.52
2023-03-26T00:13:54.840Z,13.54
2023-03-26T01:15:07.593Z,13.42
2023-03-26T01:17:37.041Z,13.36
2023-03-26T01:18:39.739Z,13.21
2023-03-26T01:21:09.195Z,13.33
2023-03-26T01:22:17.218Z,13.21
2023-03-26T01:23:23.721Z,13.21
2023-03-26T01:24:27.784Z,13.25
2023-03-26T01:25:34.970Z,13.25
2023-03-26T01:28:12.006Z,13.35
2023-03-26T01:29:24.725Z,13.24
2023-03-26T01:30:40.116Z,13.25
2023-03-26T01:31:52.686Z,13.27
2023-03-26T01:34:30.277Z,13.41
2023-03-26T01:35:48.478Z,13.29
2023-03-26T01:36:56.421Z,13.31
2023-03-26T01:39:30.053Z,13.42
2023-03-26T01:40:37.716Z,13.28
2023-03-26T01:41:50.970Z,13.29
2023-03-26T01:43:15.182Z,13.28
2023-03-26T01:44:36.451Z,13.29
2023-03-26T01:45:41.928Z,13.32
2023-03-26T01:46:45.155Z,13.34
2023-03-26T01:47:47.961Z,13.35
2023-03-26T01:48:53.476Z,13.35
2023-03-26T01:49:57.972Z,13.37
2023-03-26T01:51:01.447Z,13.39
2023-03-26T01:52:07.095Z,13.40
2023-03-26T01:53:11.332Z,13.42
2023-03-26T01:55:33.500Z,13.54
2023-03-26T01:56:48.936Z,13.41
2023-03-26T01:58:00.824Z,13.44
2023-03-26T01:59:29.476Z,13.46
2023-03-26T02:00:33.067Z,13.46
2023-03-26T02:01:48.258Z,13.49
2023-03-26T02:02:54.516Z,13.48
2023-03-26T02:04:07.411Z,13.47
2023-03-26T02:06:49.811Z,13.60
2023-03-26T02:08:12.231Z,13.46
2023-03-26T02:09:17.677Z,13.46
2023-03-26T02:11:37.704Z,13.60
2023-03-26T02:12:41.331Z,13.47
2023-03-26T02:13:45.606Z,13.49
2023-03-26T02:14:48.494Z,13.49
2023-03-26T02:17:08.926Z,13.64
2023-03-26T02:18:11.156Z,13.49
2023-03-26T02:19:14.536Z,13.51
2023-03-26T02:20:20.983Z,13.53
2023-03-26T02:21:24.828Z,13.54
2023-03-26T02:22:27.520Z,13.55
2023-03-26T02:23:29.805Z,13.55
2023-03-26T02:24:32.049Z,13.57
2023-03-26T02:25:34.439Z,13.56
2023-03-26T02:26:37.156Z,13.57
2023-03-26T02:27:41.300Z,13.58
2023-03-26T02:28:45.569Z,13.59
2023-03-26T02:29:49.704Z,13.59
2023-03-26T02:30:54.989Z,13.59
2023-03-26T02:31:58.154Z,13.61
2023-03-26T02:33:00.428Z,13.62
2023-03-26T02:34:04.487Z,13.63
2023-03-26T02:35:09.360Z,13.63
2023-03-26T02:36:13.311Z,13.66
2023-03-26T02:37:17.220Z,13.68
2023-03-26T02:38:19.702Z,13.69
2023-03-26T02:41:32.945Z,13.73
2023-03-26T02:45:55.479Z,13.75
2023-03-26T02:47:15.063Z,13.75
2023-03-26T02:48:17.254Z,13.76
2023-03-26T02:49:24.368Z,13.77
2023-03-26T02:50:27.065Z,13.77
2023-03-26T02:51:47.776Z,13.79
2023-03-26T02:52:51.910Z,13.81
2023-03-26T02:53:54.323Z,13.81
2023-03-26T02:54:58.339Z,13.82
2023-03-26T02:56:01.673Z,13.83
2023-03-26T02:57:05.709Z,13.85
2023-03-26T02:58:10.527Z,13.86
2023-03-26T02:59:15.605Z,13.88
2023-03-26T03:00:18.704Z,13.89
2023-03-26T03:01:23.415Z,13.92
2023-03-26T03:02:27.611Z,13.94
2023-03-26T03:03:31.712Z,13.96
2023-03-26T03:04:52.381Z,13.96
2023-03-26T03:05:56.161Z,13.99
2023-03-26T03:07:15.334Z,13.98
2023-03-26T03:08:22.772Z,14.00
2023-03-26T03:09:40.765Z,13.99
2023-03-26T03:11:05.516Z,13.99
2023-03-26T03:12:15.635Z,13.98
2023-03-26T03:13:17.915Z,13.99
2023-03-26T03:14:21.425Z,13.99
2023-03-26T03:15:24.782Z,13.98
2023-03-26T03:16:27.828Z,13.98
2023-03-26T03:17:30.492Z,13.97
2023-03-26T03:18:33.044Z,13.97
2023-03-26T03:19:35.800Z,13.97
2023-03-26T03:20:37.979Z,13.97
2023-03-26T03:21:41.269Z,13.97
2023-03-26T03:22:43.790Z,13.97
2023-03-26T03:23:46.477Z,13.96
2023-03-26T03:24:49.522Z,13.96
2023-03-26T03:25:51.649Z,13.97
2023-03-26T03:26:53.871Z,13.97
2023-03-26T03:28:10.313Z,13.97
2023-03-26T03:29:13.289Z,13.97
2023-03-26T03:30:16.601Z,13.96
2023-03-26T03:31:22.415Z,13.95
2023-03-26T03:32:24.764Z,13.94
2023-03-26T03:33:29.189Z,13.94
2023-03-26T03:34:31.287Z,13.93
2023-03-26T03:35:33.590Z,13.95
2023-03-26T03:36:36.362Z,13.93
2023-03-26T03:37:40.876Z,13.93
2023-03-26T03:38:44.211Z,13.93
2023-03-26T03:39:48.017Z,13.92
2023-03-26T03:40:51.930Z,13.92
2023-03-26T03:41:54.967Z,13.92
2023-03-26T03:42:57.671Z,13.91
2023-03-26T03:44:01.814Z,13.89
2023-03-26T03:45:07.791Z,13.89
2023-03-26T03:46:28.115Z,13.88
2023-03-26T03:47:30.303Z,13.90
2023-03-26T03:48:32.525Z,13.89
2023-03-26T03:49:35.604Z,13.88
2023-03-26T03:50:38.047Z,13.87
2023-03-26T03:52:00.260Z,13.86
2023-03-26T03:53:04.305Z,13.86
2023-03-26T03:54:06.859Z,13.85
2023-03-26T03:55:11.325Z,13.82
2023-03-26T03:56:27.540Z,13.81
2023-03-26T03:57:34.236Z,13.82
2023-03-26T03:58:38.244Z,13.82
2023-03-26T03:59:47.903Z,13.80
2023-03-26T04:00:50.693Z,13.77
2023-03-26T04:03:17.668Z,13.88
2023-03-26T04:04:20.257Z,13.73
2023-03-26T04:05:39.366Z,13.73
2023-03-26T04:06:41.818Z,13.75
2023-03-26T04:07:45.454Z,13.74
2023-03-26T04:09:02.516Z,13.76
2023-03-26T04:10:07.689Z,13.78
2023-03-26T04:12:23.449Z,13.87
2023-03-26T04:13:33.424Z,13.73
2023-03-26T04:14:37.827Z,13.73
2023-03-26T04:15:43.439Z,13.74
2023-03-26T04:16:46.330Z,13.74
2023-03-26T04:17:48.555Z,13.74
2023-03-26T04:18:52.047Z,13.74
2023-03-26T04:19:54.102Z,13.74
2023-03-26T04:20:57.949Z,13.71
2023-03-26T04:22:02.101Z,13.73
2023-03-26T04:23:06.973Z,13.72
2023-03-26T04:24:09.592Z,13.71
2023-03-26T04:25:33.403Z,13.73
2023-03-26T04:26:40.397Z,13.73
2023-03-26T04:27:45.313Z,13.73
2023-03-26T04:30:12.499Z,13.83
2023-03-26T04:31:20.417Z,13.68
2023-03-26T04:32:28.308Z,13.69
2023-03-26T04:33:33.114Z,13.70
2023-03-26T04:34:36.215Z,13.71
2023-03-26T04:35:43.213Z,13.71
2023-03-26T04:36:47.964Z,13.72
2023-03-26T04:37:51.247Z,13.72
2023-03-26T04:38:56.653Z,13.72
2023-03-26T04:40:02.012Z,13.75
2023-03-26T04:41:13.034Z,13.79
2023-03-26T04:42:31.260Z,13.87
2023-03-26T04:43:35.321Z,13.95
2023-03-26T04:44:43.715Z,14.02
2023-03-26T04:45:47.734Z,14.10
2023-03-26T04:46:50.909Z,14.17
2023-03-26T04:47:58.766Z,14.24
2023-03-26T04:49:04.151Z,14.34
2023-03-26T04:50:09.389Z,14.43
2023-03-26T04:51:13.879Z,14.50
2023-03-26T04:52:16.947Z,14.56
2023-03-26T04:53:37.198Z,14.62
2023-03-26T04:54:58.088Z,14.71
2023-03-26T04:56:05.812Z,14.79
2023-03-26T04:57:32.298Z,14.83
2023-03-26T04:58:36.173Z,14.92
2023-03-26T04:59:38.236Z,14.96
2023-03-26T05:00:42.770Z,15.02
2023-03-26T05:01:45.129Z,15.08
2023-03-26T05:02:49.009Z,15.14
2023-03-26T05:03:51.921Z,15.19
2023-03-26T05:04:55.226Z,15.25
2023-03-26T05:05:59.202Z,15.31
2023-03-26T05:07:01.846Z,15.36
2023-03-26T05:08:12.994Z,15.41
2023-03-26T05:09:15.517Z,15.47
2023-03-26T05:10:57.191Z,15.53
2023-03-26T05:13:13.875Z,15.60
2023-03-26T05:14:36.215Z,15.77
2023-03-26T05:15:58.779Z,15.88
2023-03-26T05:17:28.436Z,15.91
2023-03-26T05:18:49.418Z,15.96
2023-03-26T05:19:57.461Z,16.12
2023-03-26T05:21:00.381Z,16.32
2023-03-26T05:22:03.012Z,16.45
2023-03-26T05:23:07.001Z,16.51
2023-03-26T05:24:11.019Z,16.53
2023-03-26T05:25:15.354Z,16.53
2023-03-26T05:26:18.862Z,16.52
2023-03-26T05:27:21.579Z,16.51
2023-03-26T05:28:23.820Z,16.50
2023-03-26T05:29:27.840Z,16.49
2023-03-26T05:30:30.548Z,16.47
2023-03-26T05:31:35.074Z,16.44
2023-03-26T05:32:38.020Z,16.41
2023-03-26T05:33:41.950Z,16.37
2023-03-26T05:34:45.930Z,16.34
2023-03-26T05:36:03.543Z,16.37
2023-03-26T05:37:07.577Z,16.37
2023-03-26T05:38:17.316Z,16.37
2023-03-26T05:39:20.361Z,16.32
2023-03-26T05:41:00.789Z,16.26
2023-03-26T05:42:03.583Z,16.18
2023-03-26T05:43:07.595Z,16.10
2023-03-26T05:44:11.509Z,16.03
2023-03-26T05:45:15.392Z,15.96
2023-03-26T05:46:18.057Z,15.91
2023-03-26T05:47:20.629Z,15.86
2023-03-26T05:48:23.839Z,15.81
2023-03-26T05:49:26.202Z,15.76
2023-03-26T05:50:29.440Z,15.72
2023-03-26T05:51:34.429Z,15.68
2023-03-26T05:52:38.549Z,15.63
2023-03-26T05:54:01.273Z,15.60
2023-03-26T05:56:23.832Z,15.61
2023-03-26T05:57:44.282Z,15.42
2023-03-26T05:59:04.891Z,15.41
2023-03-26T06:00:25.833Z,15.38
2023-03-26T06:01:29.021Z,15.35
2023-03-26T06:02:39.176Z,15.31
2023-03-26T06:03:49.281Z,15.30
2023-03-26T06:04:53.394Z,15.28
2023-03-26T06:06:12.817Z,15.23
2023-03-26T06:07:18.105Z,15.21
2023-03-26T06:08:22.840Z,15.16
2023-03-26T06:09:27.181Z,15.15
2023-03-26T06:10:31.828Z,15.11
2023-03-26T06:11:34.056Z,15.10
2023-03-26T06:12:38.091Z,15.07
2023-03-26T06:13:42.254Z,15.06
2023-03-26T06:14:45.185Z,15.06
2023-03-26T06:15:51.883Z,15.04
2023-03-26T06:16:56.264Z,15.03
2023-03-26T06:17:58.542Z,15.02
2023-03-26T06:19:12.465Z,15.02
2023-03-26T06:20:17.022Z,15.02
2023-03-26T06:21:20.955Z,15.01
2023-03-26T06:22:33.708Z,15.01
2023-03-26T06:23:43.505Z,15.01
2023-03-26T06:24:48.173Z,15.03
2023-03-26T06:25:52.328Z,15.03
2023-03-26T06:27:01.172Z,15.02
2023-03-26T06:28:22.610Z,15.01
2023-03-26T06:29:41.727Z,15.01
2023-03-26T06:30:52.231Z,15.04
2023-03-26T06:32:18.853Z,15.02
2023-03-26T06:33:16.038Z,15.02
2023-03-26T06:34:20.520Z,15.00
2023-03-26T06:35:23.079Z,14.99
2023-03-26T06:36:25.868Z,14.97
2023-03-26T06:37:28.193Z,14.98
2023-03-26T06:38:32.100Z,14.98
2023-03-26T06:39:36.098Z,14.99
2023-03-26T06:40:42.747Z,14.98
2023-03-26T06:41:52.949Z,14.98
2023-03-26T06:43:09.173Z,14.99
2023-03-26T06:44:03.105Z,15.00
2023-03-26T06:45:12.829Z,15.01
2023-03-26T06:46:19.519Z,15.04
2023-03-26T06:47:41.057Z,15.05
2023-03-26T06:49:03.762Z,15.09
2023-03-26T06:51:36.629Z,15.23
2023-03-26T06:53:51.080Z,15.22
2023-03-26T06:54:55.450Z,15.09
2023-03-26T06:57:31.203Z,15.29
2023-03-26T06:58:38.593Z,15.16
2023-03-26T06:59:59.132Z,15.19
2023-03-26T07:01:21.785Z,15.23
2023-03-26T07:02:42.447Z,15.28
2023-03-26T07:04:03.409Z,15.31
2023-03-26T07:05:23.894Z,15.35
2023-03-26T07:07:50.515Z,15.53
2023-03-26T07:10:17.583Z,15.55
2023-03-26T07:11:38.460Z,15.44
2023-03-26T07:12:59.218Z,15.48
2023-03-26T07:14:17.185Z,15.53
2023-03-26T07:16:39.969Z,15.70
2023-03-26T07:19:52.487Z,15.62
2023-03-26T07:22:00.774Z,15.68
2023-03-26T07:23:18.789Z,15.69
2023-03-26T07:24:36.014Z,15.73
2023-03-26T07:25:48.094Z,15.76
2023-03-26T07:27:24.651Z,15.79
2023-03-26T07:29:04.717Z,15.82
2023-03-26T07:30:17.075Z,15.83
2023-03-26T07:31:40.631Z,15.88
2023-03-26T07:33:08.555Z,15.91
2023-03-26T07:34:35.789Z,15.93
2023-03-26T07:36:21.330Z,15.97
2023-03-26T07:39:35.545Z,16.17
2023-03-26T07:41:04.066Z,16.05
2023-03-26T07:42:17.016Z,16.07
2023-03-26T07:43:57.765Z,16.11
2023-03-26T07:46:30.367Z,16.32
2023-03-26T07:48:49.376Z,16.42
2023-03-26T07:51:03.838Z,16.45
2023-03-26T07:54:42.127Z,16.97
2023-03-26T07:58:51.444Z,17.84
2023-03-26T07:59:58.811Z,18.03
2023-03-26T08:03:19.721Z,18.79
2023-03-26T08:04:54.052Z,18.84
2023-03-26T08:07:48.528Z,19.41
2023-03-26T08:09:23.198Z,19.40
2023-03-26T08:10:36.866Z,19.51
2023-03-26T08:11:44.513Z,19.64
2023-03-26T08:12:53.007Z,19.72
2023-03-26T08:14:28.962Z,19.77
2023-03-26T08:17:09.309Z,19.98
2023-03-26T08:18:42.000Z,19.84
2023-03-26T08:19:56.969Z,19.84
2023-03-26T08:24:08.517Z,20.02
2023-03-26T08:25:20.633Z,19.92
2023-03-26T08:27:57.803Z,20.20
2023-03-26T08:29:06.900Z,20.15
2023-03-26T08:30:18.815Z,20.25
2023-03-26T08:32:55.233Z,20.57
2023-03-26T08:33:57.246Z,20.47
2023-03-26T08:34:59.423Z,20.53
2023-03-26T08:36:01.408Z,20.55
2023-03-26T08:37:03.464Z,20.56
2023-03-26T08:38:05.774Z,20.59
2023-03-26T08:39:07.740Z,20.60
2023-03-26T08:40:11.917Z,20.59
2023-03-26T08:41:17.751Z,20.60
2023-03-26T08:42:38.790Z,20.62
2023-03-26T08:44:04.588Z,20.66
2023-03-26T08:45:40.442Z,20.76
2023-03-26T08:47:04.449Z,20.85
2023-03-26T08:48:26.880Z,20.92
2023-03-26T08:50:48.969Z,21.12
2023-03-26T08:52:05.467Z,21.05
2023-03-26T08:53:40.850Z,21.12
2023-03-26T08:55:16.063Z,21.20
2023-03-26T08:58:16.122Z,21.48
2023-03-26T08:59:40.496Z,21.43
2023-03-26T09:04:02.030Z,21.74
2023-03-26T09:05:28.446Z,21.73
2023-03-26T09:06:34.349Z,21.88
2023-03-26T09:07:44.007Z,21.85
2023-03-26T09:09:09.550Z,21.93
2023-03-26T09:10:38.306Z,22.01
2023-03-26T09:12:02.235Z,22.10
2023-03-26T09:13:35.194Z,22.12
2023-03-26T09:14:52.148Z,22.14
2023-03-26T09:16:18.748Z,22.15
2023-03-26T09:17:45.709Z,22.09
2023-03-26T09:18:58.655Z,21.98
2023-03-26T09:22:00.510Z,21.83
2023-03-26T09:24:40.853Z,21.68
2023-03-26T09:25:47.763Z,21.53
2023-03-26T09:28:50.501Z,21.58
2023-03-26T09:29:59.984Z,21.44
2023-03-26T09:31:07.902Z,21.42
2023-03-26T09:32:44.411Z,21.41
2023-03-26T09:34:18.967Z,21.39
2023-03-26T09:35:54.972Z,21.36
2023-03-26T09:37:18.205Z,21.32
2023-03-26T09:38:32.894Z,21.28
2023-03-26T09:44:13.929Z,21.48
2023-03-26T09:45:37.059Z,21.33
2023-03-26T09:46:43.430Z,21.30
2023-03-26T09:49:36.507Z,21.19
2023-03-26T09:50:54.240Z,20.96
2023-03-26T09:52:26.499Z,20.90
2023-03-26T09:53:53.339Z,20.84
2023-03-26T09:55:11.904Z,20.76
2023-03-26T09:58:10.487Z,20.61
2023-03-26T09:59:36.126Z,20.33
2023-03-26T10:00:50.534Z,20.20
2023-03-26T10:02:12.955Z,20.04
2023-03-26T10:03:21.860Z,19.94
2023-03-26T10:04:37.426Z,19.84
2023-03-26T10:05:56.365Z,19.74
2023-03-26T10:07:36.014Z,19.67
2023-03-26T10:10:37.251Z,19.67
2023-03-26T10:11:46.556Z,19.50
2023-03-26T10:13:14.938Z,19.48
2023-03-26T10:16:17.783Z,19.53
2023-03-26T10:17:37.851Z,19.36
2023-03-26T10:19:06.500Z,19.31
2023-03-26T10:20:35.226Z,19.22
2023-03-26T10:22:56.765Z,19.13
2023-03-26T10:24:14.563Z,19.11
2023-03-26T10:25:38.518Z,19.12
2023-03-26T10:27:08.768Z,19.13
2023-03-26T10:28:24.383Z,19.14
2023-03-26T10:29:30.543Z,19.14
2023-03-26T10:31:12.200Z,19.13
2023-03-26T10:32:50.739Z,19.10
2023-03-26T10:35:47.291Z,19.13
2023-03-26T10:37:01.260Z,18.94
2023-03-26T10:38:27.150Z,18.92
2023-03-26T10:40:00.597Z,18.91
2023-03-26T10:41:25.368Z,18.90
2023-03-26T10:43:00.184Z,18.86
2023-03-26T10:44:12.166Z,18.82
2023-03-26T10:46:58.776Z,18.82
2023-03-26T10:48:26.011Z,18.64
2023-03-26T10:49:47.126Z,18.63
2023-03-26T10:51:06.923Z,18.60
2023-03-26T10:52:13.883Z,18.58
2023-03-26T10:53:39.528Z,18.54
2023-03-26T10:54:58.159Z,18.50
2023-03-26T10:57:44.200Z,18.50
2023-03-26T10:58:49.683Z,18.32
2023-03-26T10:59:54.626Z,18.30
2023-03-26T11:01:05.929Z,18.27
2023-03-26T11:02:31.062Z,18.24
2023-03-26T11:03:43.359Z,18.21
2023-03-26T11:05:04.487Z,18.19
2023-03-26T11:06:28.509Z,18.15
2023-03-26T11:07:39.629Z,18.13
2023-03-26T11:08:50.246Z,18.11
2023-03-26T11:09:57.287Z,18.07
2023-03-26T11:11:06.209Z,18.07
2023-03-26T11:12:26.223Z,18.02
2023-03-26T11:13:43.621Z,18.00
2023-03-26T11:15:06.250Z,17.96
2023-03-26T11:16:15.580Z,17.95
2023-03-26T11:17:40.708Z,17.92
2023-03-26T11:18:41.420Z,17.88
2023-03-26T11:21:18.854Z,17.94
2023-03-26T11:23:00.884Z,17.77
2023-03-26T11:24:13.208Z,17.79
2023-03-26T11:25:31.284Z,17.80
2023-03-26T11:26:43.841Z,17.76
2023-03-26T11:29:52.501Z,17.85
2023-03-26T11:31:15.489Z,17.71
2023-03-26T11:32:25.868Z,17.72
2023-03-26T11:33:36.666Z,17.74
2023-03-26T11:34:42.360Z,17.79
2023-03-26T11:35:51.272Z,17.94
2023-03-26T11:36:55.710Z,18.13
2023-03-26T11:39:18.117Z,18.74
2023-03-26T11:40:26.962Z,18.80
2023-03-26T11:41:29.675Z,18.93
2023-03-26T11:42:43.846Z,18.99
2023-03-26T11:43:49.111Z,18.98
2023-03-26T11:44:57.036Z,18.95
2023-03-26T11:46:01.866Z,18.91
2023-03-26T11:47:09.372Z,18.84
2023-03-26T11:48:27.499Z,18.79
2023-03-26T11:49:30.302Z,18.74
2023-03-26T11:50:35.871Z,18.70
2023-03-26T11:51:39.473Z,18.66
2023-03-26T11:53:55.035Z,18.70
2023-03-26T11:54:56.973Z,18.54
2023-03-26T11:57:24.174Z,18.59
2023-03-26T11:58:38.777Z,18.43
2023-03-26T11:59:57.152Z,18.42
2023-03-26T12:00:57.026Z,18.41
2023-03-26T12:02:11.994Z,18.41
2023-03-26T12:03:16.787Z,18.41
2023-03-26T12:04:38.210Z,18.42
2023-03-26T12:07:15.541Z,18.53
2023-03-26T12:08:21.745Z,18.40
2023-03-26T12:09:26.510Z,18.39
2023-03-26T12:10:40.874Z,18.40
2023-03-26T12:11:45.894Z,18.42
2023-03-26T12:12:54.362Z,18.42
2023-03-26T12:14:02.432Z,18.42
2023-03-26T12:15:16.048Z,18.38
2023-03-26T12:16:22.030Z,18.38
2023-03-26T12:17:36.064Z,18.36
2023-03-26T12:18:43.189Z,18.34
2023-03-26T12:19:45.809Z,18.27
2023-03-26T12:20:48.199Z,18.22
2023-03-26T12:21:52.218Z,18.19
2023-03-26T12:23:00.134Z,18.14
2023-03-26T12:24:28.289Z,18.12
2023-03-26T12:25:33.093Z,18.10
2023-03-26T12:26:38.876Z,18.08
2023-03-26T12:27:49.855Z,18.05
2023-03-26T12:28:51.863Z,18.04
2023-03-26T12:31:22.960Z,18.14
2023-03-26T12:32:39.110Z,18.00
2023-03-26T12:33:33.508Z,17.98
2023-03-26T12:34:37.597Z,17.97
2023-03-26T12:35:40.426Z,17.96
2023-03-26T12:36:56.624Z,17.97
2023-03-26T12:38:31.538Z,17.96
2023-03-26T12:40:09.016Z,17.94
2023-03-26T12:40:44.156Z,17.89
2023-03-26T12:44:44.991Z,17.87
2023-03-26T12:44:48.504Z,17.96
2023-03-26T12:47:55.222Z,17.96
2023-03-26T12:47:58.983Z,17.82
2023-03-26T12:48:59.519Z,17.86
2023-03-26T12:50:01.944Z,17.90
2023-03-26T12:51:08.567Z,17.94
2023-03-26T12:52:17.424Z,17.96
2023-03-26T12:53:43.215Z,17.99
2023-03-26T12:54:52.308Z,18.01
2023-03-26T12:56:00.132Z,18.05
2023-03-26T12:58:57.627Z,18.19
2023-03-26T13:00:20.220Z,18.06
2023-03-26T13:01:29.328Z,18.10
2023-03-26T13:03:09.922Z,18.11
2023-03-26T13:04:18.981Z,18.11
2023-03-26T13:05:59.343Z,18.11
2023-03-26T13:07:20.885Z,18.12
2023-03-26T13:08:41.624Z,18.14
2023-03-26T13:10:19.463Z,18.29
2023-03-26T13:11:40.539Z,18.50
2023-03-26T13:12:55.258Z,18.75
2023-03-26T13:14:18.843Z,18.83
2023-03-26T13:15:33.702Z,18.87
2023-03-26T13:19:49.582Z,18.71
2023-03-26T13:29:12.152Z,18.51
2023-03-26T13:32:06.969Z,18.39
2023-03-26T13:33:15.865Z,18.24
2023-03-26T13:34:21.686Z,18.21
2023-03-26T13:35:33.282Z,18.18
2023-03-26T13:38:07.723Z,18.24
2023-03-26T13:39:20.467Z,18.06
2023-03-26T13:40:29.193Z,18.04
2023-03-26T13:41:47.071Z,18.02
2023-03-26T13:44:44.221Z,18.10
2023-03-26T13:46:06.455Z,17.94
2023-03-26T13:47:12.126Z,17.94
2023-03-26T13:48:17.526Z,17.94
2023-03-26T13:49:35.819Z,17.91
2023-03-26T13:50:41.080Z,17.89
2023-03-26T13:51:50.107Z,17.89
2023-03-26T13:53:05.484Z,17.90
2023-03-26T13:54:29.449Z,17.89
2023-03-26T13:55:47.828Z,17.88
2023-03-26T13:56:53.635Z,17.89
2023-03-26T13:58:11.750Z,17.88
2023-03-26T14:00:34.262Z,17.96
2023-03-26T14:01:39.734Z,17.82
2023-03-26T14:02:43.949Z,17.83
2023-03-26T14:05:10.477Z,17.95
2023-03-26T14:06:36.821Z,17.81
2023-03-26T14:07:51.091Z,17.83
2023-03-26T14:08:58.875Z,17.85
2023-03-26T14:10:13.014Z,17.84
2023-03-26T14:12:58.865Z,17.92
2023-03-26T14:14:10.141Z,17.78
2023-03-26T14:15:27.587Z,17.78
2023-03-26T14:16:43.357Z,17.77
2023-03-26T14:17:51.343Z,17.77
2023-03-26T14:18:59.990Z,17.76
2023-03-26T14:20:24.801Z,17.75
2023-03-26T14:21:39.497Z,17.74
2023-03-26T14:22:51.658Z,17.75
2023-03-26T14:24:18.271Z,17.74
2023-03-26T14:25:50.431Z,17.72
2023-03-26T14:27:08.256Z,17.72
2023-03-26T14:28:48.098Z,17.67
2023-03-26T14:30:06.346Z,17.64
2023-03-26T14:31:17.153Z,17.62
2023-03-26T14:34:07.015Z,17.63
2023-03-26T14:35:13.837Z,17.45
2023-03-26T14:36:35.863Z,17.42
2023-03-26T14:39:31.496Z,17.47
2023-03-26T14:40:49.915Z,17.31
2023-03-26T14:41:54.732Z,17.29
2023-03-26T14:43:15.506Z,17.26
2023-03-26T14:44:48.477Z,17.21
2023-03-26T14:46:14.212Z,17.21
2023-03-26T14:47:22.156Z,17.19
2023-03-26T14:50:07.495Z,17.27
2023-03-26T14:51:19.288Z,17.10
2023-03-26T14:52:46.048Z,17.09
2023-03-26T14:53:50.924Z,17.08
2023-03-26T14:54:55.569Z,17.07
2023-03-26T14:56:07.570Z,17.03
2023-03-26T14:57:30.894Z,17.02
2023-03-26T14:59:05.819Z,17.01
2023-03-26T15:00:17.951Z,16.98
2023-03-26T15:01:27.897Z,16.94
2023-03-26T15:02:57.182Z,16.91
2023-03-26T15:04:32.314Z,16.88
2023-03-26T15:07:24.931Z,16.97
2023-03-26T15:10:12.741Z,16.86
2023-03-26T15:12:55.696Z,16.81
2023-03-26T15:14:16.810Z,16.65
2023-03-26T15:15:55.219Z,16.66
2023-03-26T15:17:04.748Z,16.65
2023-03-26T15:18:14.094Z,16.65
2023-03-26T15:19:26.643Z,16.63
2023-03-26T15:21:56.080Z,16.69
2023-03-26T15:23:13.826Z,16.52
2023-03-26T15:24:28.705Z,16.51
2023-03-26T15:25:50.664Z,16.52
2023-03-26T15:27:25.672Z,16.49
2023-03-26T15:28:40.616Z,16.50
2023-03-26T15:30:03.463Z,16.53
2023-03-26T15:31:11.988Z,16.52
2023-03-26T15:32:24.031Z,16.51
2023-03-26T15:33:54.554Z,16.50
2023-03-26T15:36:28.530Z,16.58
2023-03-26T15:37:56.966Z,16.44
2023-03-26T15:39:22.660Z,16.46
2023-03-26T15:40:46.258Z,16.49
2023-03-26T15:42:08.165Z,16.51
2023-03-26T15:43:16.646Z,16.54
2023-03-26T15:44:25.635Z,16.54
2023-03-26T15:45:37.602Z,16.54
2023-03-26T15:46:53.100Z,16.55
2023-03-26T15:48:15.068Z,16.55
2023-03-26T15:49:40.873Z,16.55
2023-03-26T15:51:04.844Z,16.58
2023-03-26T15:52:27.928Z,16.57
2023-03-26T15:53:55.473Z,16.57
2023-03-26T15:56:26.236Z,16.65
2023-03-26T15:57:46.957Z,16.49
2023-03-26T15:58:53.322Z,16.47
2023-03-26T16:00:24.910Z,16.47
2023-03-26T16:01:52.777Z,16.46
2023-03-26T16:03:05.193Z,16.47
2023-03-26T16:04:28.502Z,16.45
2023-03-26T16:05:52.179Z,16.41
2023-03-26T16:07:10.121Z,16.38
2023-03-26T16:08:19.390Z,16.39
2023-03-26T16:09:25.151Z,16.35
2023-03-26T16:10:40.485Z,16.33
2023-03-26T16:11:49.702Z,16.29
2023-03-26T16:13:12.382Z,16.26
2023-03-26T16:14:36.075Z,16.23
2023-03-26T16:15:38.888Z,16.19
2023-03-26T16:18:12.290Z,16.23
2023-03-26T16:19:24.304Z,16.06
2023-03-26T16:20:34.936Z,16.04
2023-03-26T16:22:57.382Z,16.11
2023-03-26T16:24:10.315Z,15.93
2023-03-26T16:25:27.455Z,15.92
2023-03-26T16:26:33.056Z,15.90
2023-03-26T16:27:35.171Z,15.87
2023-03-26T16:30:09.473Z,15.94
2023-03-26T16:31:36.919Z,15.79
2023-03-26T16:32:33.213Z,15.82
2023-03-26T16:33:38.004Z,15.85
2023-03-26T16:34:57.883Z,15.87
2023-03-26T16:36:03.730Z,15.90
2023-03-26T16:37:26.550Z,15.94
2023-03-26T16:40:15.571Z,16.08
2023-03-26T16:41:19.724Z,15.96
2023-03-26T16:42:29.540Z,16.01
2023-03-26T16:43:38.827Z,16.03
2023-03-26T16:44:57.838Z,16.07
2023-03-26T16:46:06.563Z,16.09
2023-03-26T16:47:27.511Z,16.10
2023-03-26T16:48:36.354Z,16.09
2023-03-26T16:50:07.354Z,16.07
2023-03-26T16:51:44.165Z,16.03
2023-03-26T16:54:31.217Z,16.03
2023-03-26T16:55:36.970Z,15.82
2023-03-26T16:56:52.350Z,15.79
2023-03-26T16:57:58.768Z,15.74
2023-03-26T16:59:08.691Z,15.71
2023-03-26T17:00:25.157Z,15.66
2023-03-26T17:01:45.568Z,15.64
2023-03-26T17:03:26.861Z,15.62
2023-03-26T17:04:31.812Z,15.59
2023-03-26T17:05:37.194Z,15.57
2023-03-26T17:06:49.634Z,15.54
2023-03-26T17:08:15.329Z,15.52
2023-03-26T17:10:47.929Z,15.59
2023-03-26T17:11:56.714Z,15.44
2023-03-26T17:14:46.406Z,15.57
2023-03-26T17:16:10.682Z,15.43
2023-03-26T17:17:42.873Z,15.46
2023-03-26T17:18:51.634Z,15.48
2023-03-26T17:20:12.356Z,15.50
2023-03-26T17:21:20.814Z,15.50
2023-03-26T17:22:45.049Z,15.50
2023-03-26T17:24:26.446Z,15.48
2023-03-26T17:25:46.684Z,15.48
2023-03-26T17:27:04.295Z,15.45
2023-03-26T17:28:35.090Z,15.43
2023-03-26T17:29:43.821Z,15.41
2023-03-26T17:31:17.629Z,15.41
2023-03-26T17:32:20.575Z,15.40
2023-03-26T17:33:29.223Z,15.38
2023-03-26T17:34:42.317Z,15.36
2023-03-26T17:36:12.341Z,15.33
2023-03-26T17:38:50.561Z,15.42
2023-03-26T17:39:59.107Z,15.25
2023-03-26T17:41:02.420Z,15.23
2023-03-26T17:43:50.071Z,15.34
2023-03-26T17:44:57.534Z,15.19
2023-03-26T17:46:03.345Z,15.19
2023-03-26T17:47:08.371Z,15.18
2023-03-26T17:48:16.681Z,15.18
2023-03-26T17:49:22.453Z,15.17
2023-03-26T17:50:51.428Z,15.17
2023-03-26T17:52:03.044Z,15.15
2023-03-26T17:54:51.601Z,15.25
2023-03-26T17:56:06.118Z,15.11
2023-03-26T17:57:18.424Z,15.10
2023-03-26T17:58:25.509Z,15.11
2023-03-26T17:59:30.373Z,15.12
2023-03-26T18:00:36.003Z,15.12
2023-03-26T18:01:40.683Z,15.09
2023-03-26T18:04:05.886Z,15.20
2023-03-26T18:05:10.438Z,15.04
2023-03-26T18:06:31.622Z,15.05
2023-03-26T18:07:58.026Z,15.03
2023-03-26T18:09:21.697Z,15.02
2023-03-26T18:10:31.078Z,15.03
2023-03-26T18:11:56.161Z,15.01
2023-03-26T18:13:06.057Z,15.00
2023-03-26T18:14:24.150Z,14.99
2023-03-26T18:15:36.027Z,14.96
2023-03-26T18:17:55.177Z,15.02
2023-03-26T18:19:02.318Z,14.86
2023-03-26T18:20:06.660Z,14.85
2023-03-26T18:21:11.033Z,14.84
2023-03-26T18:22:17.324Z,14.83
2023-03-26T18:23:38.430Z,14.82
2023-03-26T18:24:42.540Z,14.80
2023-03-26T18:25:57.157Z,14.80
2023-03-26T18:27:11.398Z,14.78
2023-03-26T18:28:14.087Z,14.78
2023-03-26T18:29:28.567Z,14.76
2023-03-26T18:30:30.677Z,14.75
2023-03-26T18:31:33.896Z,14.74
2023-03-26T18:32:38.122Z,14.73
2023-03-26T18:33:45.334Z,14.72
2023-03-26T18:34:51.249Z,14.70
2023-03-26T18:35:54.515Z,14.68
2023-03-26T18:38:36.146Z,14.76
2023-03-26T18:39:26.279Z,14.60
2023-03-26T18:40:34.191Z,14.59
2023-03-26T18:41:38.707Z,14.59
2023-03-26T18:42:43.479Z,14.60
2023-03-26T18:43:45.946Z,14.60
2023-03-26T18:44:49.525Z,14.60
2023-03-26T18:45:53.339Z,14.60
2023-03-26T18:46:56.867Z,14.60
2023-03-26T18:48:02.134Z,14.60
2023-03-26T18:49:04.704Z,14.57
2023-03-26T18:50:12.738Z,14.55
2023-03-26T18:51:14.866Z,14.55
2023-03-26T18:52:20.229Z,14.54
2023-03-26T18:53:25.984Z,14.52
2023-03-26T18:54:31.837Z,14.51
2023-03-26T18:55:34.867Z,14.50
2023-03-26T18:56:40.030Z,14.49
2023-03-26T18:57:44.090Z,14.47
2023-03-26T18:58:51.442Z,14.46
2023-03-26T18:59:55.970Z,14.45